This is the latest recevied weather packets stored in our database for station/object KAWM. If no packets are shown the sender has not sent any weather packets the latest 10 day(s).
| Time | Temp. | Humidity | Pressure | Rain* | Wind** | Luminosity | Snow |
|---|---|---|---|---|---|---|---|
| 1777824215 | 18.89° C | 45% | 1021.7 hPa | - | - | - | - |
| 1777821814 | 16.67° C | 48% | 1022 hPa | - | - | - | - |
| 1777821212 | 16.67° C | 48% | 1022 hPa | - | - | - | - |
| 1777818811 | 15° C | 54% | 1022 hPa | - | - | - | - |
| 1777811610 | 7.78° C | 87% | 1021.3 hPa | - | - | - | - |
| 1777810407 | 7.78° C | 87% | 1021.3 hPa | - | - | - | - |
| 1777806208 | 7.78° C | 87% | 1020.7 hPa | - | - | - | - |
| 1777803206 | 7.78° C | 87% | 1020.7 hPa | - | - | - | - |
| 1777800807 | 8.89° C | 81% | 1020.7 hPa | - | - | - | - |
| 1777800206 | 8.89° C | 81% | 1020.7 hPa | - | - | - | - |
| 1777799607 | 8.89° C | 81% | 1020.7 hPa | - | - | - | - |
| 1777799008 | 8.89° C | 81% | 1020.7 hPa | - | - | - | - |
| 1777797809 | 10.56° C | 66% | 1020.3 hPa | - | - | - | - |
| 1777797207 | 10.56° C | 66% | 1020.3 hPa | - | - | - | - |
| 1777796612 | 10.56° C | 66% | 1020.3 hPa | - | - | - | - |
| 1777796008 | 10.56° C | 66% | 1020.3 hPa | - | - | - | - |
| 1777795414 | 10.56° C | 66% | 1020.3 hPa | - | - | - | - |
| 1777794811 | 11.67° C | 66% | 1020.3 hPa | - | - | - | - |
| 1777794211 | 11.67° C | 66% | 1020.3 hPa | - | - | - | - |
| 1777793607 | 11.67° C | 66% | 1020.3 hPa | - | - | - | - |
| 1777793007 | 11.67° C | 66% | 1020.3 hPa | - | - | - | - |
| 1777792407 | 11.67° C | 66% | 1020.3 hPa | - | - | - | - |
| 1777791808 | 11.67° C | 66% | 1020.3 hPa | - | - | - | - |
| 1777791206 | 12.78° C | 62% | 1020.3 hPa | - | - | - | - |
| 1777790009 | 12.78° C | 62% | 1020.3 hPa | - | - | - | - |
* Rain since midnight (hover to see other rain measurements)
** Current wind speed in m/s (hover to see current wind gust speed)